Time;durP1;ratioP1;P1;durP2;ratioP2;P2;SDS_P1;SDS_P2;PMS_P1;PMS_P2;Temp;Humidity;BMP_temperature;BMP_pressure;BME280_temperature;BME280_humidity;BME280_pressure;Samples;Min_cycle;Max_cycle;Signal;HPM_P1;HPM_P2
2023/06/23 00:01:20;;;;;;;12.10;8.35;;;22.80;99.90;;;;;;4996308;28;20468;-91
2023/06/23 00:03:46;;;;;;;12.70;8.93;;;22.70;99.90;;;;;;4995050;28;20109;-90
2023/06/23 00:06:13;;;;;;;11.77;8.98;;;22.70;99.90;;;;;;4995572;28;20033;-91
2023/06/23 00:08:39;;;;;;;19.20;9.45;;;22.70;99.90;;;;;;4995864;28;20026;-91
2023/06/23 00:11:06;;;;;;;12.52;8.50;;;22.70;99.90;;;;;;5003254;28;20447;-90
2023/06/23 00:13:35;;;;;;;11.65;7.90;;;22.70;99.90;;;;;;5008478;28;20090;-93
2023/06/23 00:16:05;;;;;;;17.58;8.73;;;22.60;99.90;;;;;;5021610;28;20030;-89
2023/06/23 00:18:33;;;;;;;19.83;9.35;;;22.60;99.90;;;;;;5018955;28;20030;-90
2023/06/23 00:20:59;;;;;;;13.30;8.77;;;22.60;99.90;;;;;;5002252;28;20026;-89
2023/06/23 00:23:25;;;;;;;21.27;8.13;;;22.60;99.90;;;;;;4999922;28;20028;-87
2023/06/23 00:25:51;;;;;;;11.57;8.40;;;22.60;99.90;;;;;;5015301;28;20051;-89
2023/06/23 00:28:17;;;;;;;12.63;8.43;;;22.50;99.90;;;;;;5015517;28;20028;-90
2023/06/23 00:30:43;;;;;;;15.52;9.95;;;22.60;99.90;;;;;;4998409;28;20030;-91
2023/06/23 00:33:08;;;;;;;13.13;9.35;;;22.50;99.90;;;;;;5015371;28;20104;-91
2023/06/23 00:35:34;;;;;;;13.18;9.13;;;22.50;99.90;;;;;;5015347;28;20094;-91
2023/06/23 00:38:00;;;;;;;13.90;9.02;;;22.50;99.90;;;;;;4998654;28;20033;-90
2023/06/23 00:40:25;;;;;;;16.65;8.45;;;22.50;99.90;;;;;;5014679;28;20033;-90
2023/06/23 00:42:55;;;;;;;11.65;8.68;;;22.50;99.90;;;;;;5015195;28;20029;-90
2023/06/23 00:45:22;;;;;;;12.38;8.75;;;22.50;99.90;;;;;;4997755;28;20026;-90
2023/06/23 00:47:49;;;;;;;16.30;9.57;;;22.50;99.90;;;;;;4997634;28;20490;-90
2023/06/23 00:50:16;;;;;;;14.05;9.05;;;22.40;99.90;;;;;;4997642;28;20117;-90
2023/06/23 00:52:50;;;;;;;13.20;8.98;;;22.40;99.90;;;;;;5015178;28;20034;-90
2023/06/23 00:55:20;;;;;;;13.05;8.57;;;22.40;99.90;;;;;;4997301;28;20037;-91
2023/06/23 00:57:47;;;;;;;18.40;9.43;;;22.40;99.90;;;;;;4997265;28;20024;-90
2023/06/23 01:00:19;;;;;;;15.13;8.82;;;22.30;99.90;;;;;;4997617;28;20030;-91
2023/06/23 01:02:49;;;;;;;16.35;9.07;;;22.30;99.90;;;;;;4997178;28;20092;-90
2023/06/23 01:05:16;;;;;;;13.23;8.90;;;22.30;99.90;;;;;;4996804;28;20034;-91
2023/06/23 01:07:52;;;;;;;21.67;9.48;;;22.30;99.90;;;;;;4996823;28;20018;-89
2023/06/23 01:10:35;;;;;;;12.95;9.18;;;22.30;99.90;;;;;;5014795;28;20044;-95
2023/06/23 01:13:26;;;;;;;10.55;7.82;;;22.30;99.90;;;;;;5014792;28;20060;-93
2023/06/23 01:15:58;;;;;;;9.52;7.85;;;22.40;99.90;;;;;;5018859;28;20046;-93
2023/06/23 01:18:38;;;;;;;15.00;9.60;;;22.40;99.90;;;;;;5001029;28;20060;-93
2023/06/23 01:21:08;;;;;;;20.63;9.90;;;22.40;99.90;;;;;;5016094;28;20037;-93
2023/06/23 01:23:56;;;;;;;15.57;9.68;;;22.40;99.90;;;;;;4997846;28;20029;-89
2023/06/23 01:26:30;;;;;;;10.90;8.73;;;22.50;99.90;;;;;;5015854;28;20030;-92
2023/06/23 01:29:00;;;;;;;13.23;8.13;;;22.50;99.90;;;;;;5022065;28;20069;-92
2023/06/23 01:31:39;;;;;;;10.75;7.75;;;22.50;99.90;;;;;;5000462;28;20559;-91
2023/06/23 01:34:08;;;;;;;11.77;8.52;;;22.50;99.90;;;;;;5014605;28;20022;-93
2023/06/23 01:36:50;;;;;;;13.80;8.50;;;22.50;99.90;;;;;;4999230;28;20026;-95
2023/06/23 01:39:19;;;;;;;9.10;7.82;;;22.60;99.90;;;;;;5012917;28;20077;-95
2023/06/23 01:41:54;;;;;;;14.93;8.82;;;22.70;99.90;;;;;;5034509;28;20021;-94
2023/06/23 01:44:23;;;;;;;16.25;9.38;;;22.70;99.90;;;;;;5001954;28;20041;-94
2023/06/23 01:46:54;;;;;;;13.95;9.00;;;22.70;99.90;;;;;;5016330;28;20026;-95
2023/06/23 01:49:27;;;;;;;10.88;8.27;;;22.70;99.90;;;;;;5010895;28;20034;-93
2023/06/23 01:51:54;;;;;;;17.88;9.73;;;22.70;99.90;;;;;;4996522;28;20030;-93
2023/06/23 01:54:22;;;;;;;13.15;8.48;;;22.70;99.90;;;;;;4997712;28;20026;-93
2023/06/23 01:56:50;;;;;;;14.43;8.60;;;22.70;99.90;;;;;;4996813;28;20029;-93
2023/06/23 01:59:17;;;;;;;15.18;8.93;;;22.80;99.90;;;;;;4998870;28;20030;-93
2023/06/23 02:01:45;;;;;;;8.90;8.00;;;22.70;99.90;;;;;;5014480;28;20041;-88
2023/06/23 02:04:12;;;;;;;11.65;8.77;;;22.70;99.90;;;;;;4996123;28;20486;-92
2023/06/23 02:06:39;;;;;;;12.32;9.68;;;22.60;99.90;;;;;;5013972;28;20117;-86
2023/06/23 02:09:13;;;;;;;16.05;9.52;;;22.60;99.90;;;;;;4996292;28;20029;-93
2023/06/23 02:11:40;;;;;;;15.35;9.63;;;22.60;99.90;;;;;;5013238;28;20030;-88
2023/06/23 02:14:09;;;;;;;11.23;9.70;;;22.60;99.90;;;;;;5011732;28;20136;-89
2023/06/23 02:16:35;;;;;;;9.50;8.60;;;22.60;99.90;;;;;;5012384;28;20025;-91
2023/06/23 02:19:02;;;;;;;13.20;8.00;;;22.60;99.90;;;;;;4998524;28;20030;-92
2023/06/23 02:21:29;;;;;;;18.63;9.32;;;22.70;99.90;;;;;;4998987;28;20411;-91
2023/06/23 02:23:56;;;;;;;12.60;9.73;;;22.70;99.90;;;;;;4995553;28;20030;-88
2023/06/23 02:26:25;;;;;;;15.88;9.85;;;22.70;99.90;;;;;;5016144;28;20033;-92
2023/06/23 02:28:52;;;;;;;14.05;9.52;;;22.70;99.90;;;;;;4997408;28;20026;-92
2023/06/23 02:31:20;;;;;;;20.10;10.13;;;22.80;99.90;;;;;;4995854;28;20816;-93
2023/06/23 02:33:46;;;;;;;14.05;9.52;;;22.80;99.90;;;;;;5013162;28;20072;-93
2023/06/23 02:36:16;;;;;;;18.67;10.35;;;22.80;99.90;;;;;;4996040;28;20034;-92
2023/06/23 02:38:43;;;;;;;16.58;10.15;;;22.80;99.90;;;;;;4996750;28;20065;-94
2023/06/23 02:41:11;;;;;;;12.95;9.65;;;22.70;99.90;;;;;;4997639;28;20026;-93
2023/06/23 02:43:44;;;;;;;17.55;10.40;;;22.70;99.90;;;;;;5012886;28;20021;-90
2023/06/23 02:46:11;;;;;;;14.90;9.43;;;22.70;99.90;;;;;;5013597;28;20026;-89
2023/06/23 02:48:40;;;;;;;12.23;9.82;;;22.60;99.90;;;;;;4996649;28;20057;-91
2023/06/23 02:51:12;;;;;;;13.52;10.02;;;22.60;99.90;;;;;;4996768;28;20025;-94
2023/06/23 02:53:50;;;;;;;12.77;9.77;;;22.60;99.90;;;;;;4996058;28;20026;-90
2023/06/23 02:56:19;;;;;;;13.18;9.45;;;22.50;99.90;;;;;;4999123;28;20038;-89
2023/06/23 02:58:52;;;;;;;12.43;8.60;;;22.50;99.90;;;;;;5013601;28;20028;-90
2023/06/23 03:01:22;;;;;;;18.08;10.05;;;22.50;99.90;;;;;;5014151;28;20038;-90
2023/06/23 03:03:48;;;;;;;14.77;9.73;;;22.50;99.90;;;;;;5015996;28;20056;-89
2023/06/23 03:06:19;;;;;;;16.23;10.35;;;22.50;99.90;;;;;;5003354;28;20041;-89
2023/06/23 03:08:47;;;;;;;10.75;8.90;;;22.60;99.90;;;;;;5017661;28;20033;-92
2023/06/23 03:11:16;;;;;;;16.23;9.55;;;22.50;99.90;;;;;;4999256;28;20038;-88
2023/06/23 03:13:43;;;;;;;13.55;9.55;;;22.50;99.90;;;;;;5016202;28;20038;-87
2023/06/23 03:16:25;;;;;;;19.63;9.88;;;22.60;99.90;;;;;;4998996;28;20038;-88
2023/06/23 03:18:59;;;;;;;12.60;10.88;;;22.70;99.90;;;;;;4998903;28;20033;-88
2023/06/23 03:21:25;;;;;;;15.38;10.43;;;22.80;99.90;;;;;;4998998;28;20026;-88
2023/06/23 03:23:55;;;;;;;18.15;10.15;;;22.80;99.90;;;;;;4998764;28;20029;-88
2023/06/23 03:26:23;;;;;;;12.15;10.23;;;22.80;99.90;;;;;;5016255;28;20105;-88
2023/06/23 03:28:50;;;;;;;11.73;9.38;;;22.90;99.90;;;;;;4997699;28;20034;-89
2023/06/23 03:31:18;;;;;;;13.50;10.18;;;23.00;99.90;;;;;;5015283;28;20057;-88
2023/06/23 03:33:46;;;;;;;11.02;9.23;;;23.00;99.90;;;;;;4998416;28;20022;-87
2023/06/23 03:36:19;;;;;;;11.65;8.98;;;23.10;99.90;;;;;;4998612;28;20072;-88
2023/06/23 03:39:09;;;;;;;17.73;9.93;;;23.10;99.90;;;;;;4998149;28;20447;-87
2023/06/23 03:41:35;;;;;;;11.07;8.90;;;23.20;99.90;;;;;;5015358;28;20029;-88
2023/06/23 03:44:12;;;;;;;15.63;9.30;;;23.20;99.90;;;;;;5015109;28;20482;-88
2023/06/23 03:46:51;;;;;;;15.73;9.20;;;23.30;99.90;;;;;;4997738;28;20033;-88
2023/06/23 03:49:18;;;;;;;10.57;8.40;;;23.30;99.90;;;;;;5015593;28;20034;-87
2023/06/23 03:51:47;;;;;;;14.93;9.77;;;23.30;99.90;;;;;;4997918;28;20030;-88
2023/06/23 03:54:15;;;;;;;14.32;9.63;;;23.40;99.90;;;;;;5011697;28;20018;-88
2023/06/23 03:56:43;;;;;;;13.88;9.70;;;23.40;99.90;;;;;;5018954;28;20025;-87
2023/06/23 03:59:12;;;;;;;15.32;9.77;;;23.50;99.90;;;;;;5031535;28;20148;-87
2023/06/23 04:01:40;;;;;;;14.90;10.02;;;23.60;99.90;;;;;;4998422;28;20026;-87
2023/06/23 04:04:07;;;;;;;11.52;9.68;;;23.60;99.90;;;;;;5016088;28;20048;-88
2023/06/23 04:06:35;;;;;;;10.52;9.15;;;23.70;99.90;;;;;;4998238;28;20021;-87
2023/06/23 04:09:02;;;;;;;14.00;9.70;;;23.80;99.90;;;;;;4998016;28;20061;-88
2023/06/23 04:11:29;;;;;;;17.38;10.05;;;23.80;99.90;;;;;;4998383;28;20030;-87
2023/06/23 04:13:59;;;;;;;13.68;8.93;;;23.90;99.90;;;;;;4996779;28;20050;-88
2023/06/23 04:16:26;;;;;;;10.90;8.38;;;24.00;99.90;;;;;;4998045;28;20136;-88
2023/06/23 04:18:53;;;;;;;8.95;8.13;;;24.00;99.90;;;;;;4998029;28;20482;-88
2023/06/23 04:21:22;;;;;;;11.75;8.15;;;24.10;99.90;;;;;;5015215;28;20026;-88
2023/06/23 04:23:50;;;;;;;14.43;9.07;;;24.20;99.90;;;;;;4997557;28;20018;-87
2023/06/23 04:26:16;;;;;;;10.20;8.85;;;24.20;99.90;;;;;;5014377;28;20487;-87
2023/06/23 04:28:43;;;;;;;17.00;9.73;;;24.30;99.90;;;;;;4996979;28;20033;-87
2023/06/23 04:31:10;;;;;;;15.57;9.25;;;24.30;99.90;;;;;;4997616;28;20030;-88
2023/06/23 04:33:37;;;;;;;16.25;9.38;;;24.40;99.90;;;;;;4997006;28;20394;-87
2023/06/23 04:36:13;;;;;;;11.32;9.23;;;24.50;99.90;;;;;;4997381;28;20502;-88
2023/06/23 04:38:44;;;;;;;10.38;8.75;;;24.50;99.90;;;;;;4997460;28;20040;-88
2023/06/23 04:41:15;;;;;;;14.15;9.75;;;24.50;99.90;;;;;;4997532;28;20034;-88
2023/06/23 04:43:45;;;;;;;11.75;9.10;;;24.50;99.90;;;;;;5015525;28;20022;-87
2023/06/23 04:46:15;;;;;;;9.45;8.40;;;24.60;99.90;;;;;;4997929;28;20157;-88
2023/06/23 04:48:46;;;;;;;18.25;9.77;;;24.60;99.90;;;;;;4997406;28;20029;-88
2023/06/23 04:51:14;;;;;;;10.32;9.20;;;24.70;99.90;;;;;;4997483;28;20505;-88
2023/06/23 04:53:49;;;;;;;22.85;9.73;;;24.90;99.90;;;;;;4997325;28;20176;-89
2023/06/23 04:56:19;;;;;;;12.60;9.13;;;25.20;99.90;;;;;;4997245;28;20050;-88
2023/06/23 04:58:52;;;;;;;12.68;8.30;;;25.50;99.90;;;;;;4996415;28;20030;-88
2023/06/23 05:01:19;;;;;;;11.82;9.45;;;25.70;99.90;;;;;;4995143;28;20034;-88
2023/06/23 05:03:47;;;;;;;15.23;10.15;;;25.90;99.90;;;;;;4996212;28;20022;-87
2023/06/23 05:06:15;;;;;;;13.95;9.82;;;26.10;99.90;;;;;;4996187;28;20018;-87
2023/06/23 05:08:44;;;;;;;16.45;9.43;;;26.10;99.90;;;;;;4997123;28;20120;-88
2023/06/23 05:11:12;;;;;;;20.65;9.90;;;26.20;99.90;;;;;;4997148;28;20029;-88
2023/06/23 05:13:38;;;;;;;13.00;9.60;;;26.30;99.90;;;;;;4996679;28;20053;-88
2023/06/23 05:16:10;;;;;;;20.33;10.02;;;26.50;99.90;;;;;;4996698;28;20552;-88
2023/06/23 05:18:38;;;;;;;13.90;9.88;;;26.70;99.90;;;;;;4996650;28;20025;-88
2023/06/23 05:21:05;;;;;;;10.60;8.10;;;26.90;99.90;;;;;;4995353;28;20041;-88
2023/06/23 05:23:36;;;;;;;14.10;8.32;;;27.10;99.90;;;;;;4996818;28;20077;-88
2023/06/23 05:26:06;;;;;;;18.85;8.85;;;27.30;99.90;;;;;;4996514;28;20494;-89
2023/06/23 05:28:37;;;;;;;14.32;9.10;;;27.50;99.90;;;;;;4995699;28;20022;-88
2023/06/23 05:31:05;;;;;;;16.23;9.02;;;27.80;99.90;;;;;;4996201;28;20073;-89
2023/06/23 05:33:35;;;;;;;15.30;8.00;;;27.90;96.90;;;;;;5014522;28;20033;-89
2023/06/23 05:36:02;;;;;;;11.52;8.20;;;28.00;96.00;;;;;;4996557;28;20438;-88
2023/06/23 05:38:30;;;;;;;12.52;8.23;;;28.20;96.40;;;;;;4996101;28;20037;-88
2023/06/23 05:40:56;;;;;;;14.13;8.85;;;28.30;96.20;;;;;;4996632;28;20029;-89
2023/06/23 05:43:22;;;;;;;12.07;8.50;;;28.50;92.70;;;;;;4995218;28;20079;-89
2023/06/23 05:45:48;;;;;;;17.88;8.85;;;28.60;92.70;;;;;;5013662;28;20100;-88
2023/06/23 05:48:27;;;;;;;12.30;7.13;;;28.80;92.30;;;;;;4996746;28;20486;-88
2023/06/23 05:50:55;;;;;;;9.02;6.70;;;29.00;90.90;;;;;;5013992;28;20033;-89
2023/06/23 05:53:25;;;;;;;20.13;7.78;;;29.20;90.40;;;;;;4996235;28;20033;-89
2023/06/23 05:56:05;;;;;;;15.77;7.80;;;29.60;90.10;;;;;;4996054;28;20172;-89
2023/06/23 05:58:46;;;;;;;12.30;7.93;;;30.00;89.00;;;;;;4996156;28;20018;-89
2023/06/23 06:01:19;;;;;;;11.73;7.00;;;30.80;85.80;;;;;;4994955;28;20032;-89
2023/06/23 06:04:00;;;;;;;13.98;6.22;;;31.60;83.20;;;;;;4996381;28;20494;-88
2023/06/23 06:06:28;;;;;;;7.63;6.75;;;32.30;75.20;;;;;;5013714;28;20106;-89
2023/06/23 06:08:57;;;;;;;12.68;6.53;;;32.90;72.10;;;;;;4996225;28;20677;-90
2023/06/23 06:11:24;;;;;;;10.35;6.20;;;33.50;68.60;;;;;;5013647;28;20052;-89
2023/06/23 06:13:51;;;;;;;14.27;6.65;;;34.10;67.60;;;;;;4995631;28;20103;-89
2023/06/23 06:16:18;;;;;;;9.20;5.57;;;34.50;64.90;;;;;;4995298;28;20049;-89
2023/06/23 06:18:45;;;;;;;12.63;6.05;;;35.00;60.80;;;;;;5013487;28;20101;-88
2023/06/23 06:21:12;;;;;;;8.95;6.15;;;35.50;59.50;;;;;;4996223;28;20064;-87
2023/06/23 06:23:41;;;;;;;8.07;5.72;;;35.80;57.00;;;;;;4995953;28;20045;-88
2023/06/23 06:26:08;;;;;;;12.48;5.82;;;36.20;55.50;;;;;;4995933;28;20080;-88
2023/06/23 06:28:36;;;;;;;14.15;7.00;;;36.10;56.80;;;;;;4995926;28;20034;-88
2023/06/23 06:31:02;;;;;;;11.80;7.13;;;36.00;55.20;;;;;;4995999;28;20037;-88
2023/06/23 06:33:29;;;;;;;9.48;6.43;;;35.90;54.30;;;;;;4995938;28;20033;-87
2023/06/23 06:35:57;;;;;;;15.45;6.10;;;36.00;53.50;;;;;;5013026;28;20578;-87
2023/06/23 06:38:24;;;;;;;15.73;6.95;;;35.70;54.50;;;;;;4998780;28;20061;-88
2023/06/23 06:40:53;;;;;;;9.20;6.95;;;35.70;54.80;;;;;;5000335;28;20026;-88
2023/06/23 06:43:19;;;;;;;9.57;7.47;;;35.50;53.80;;;;;;5016715;28;20105;-88
2023/06/23 06:45:47;;;;;;;16.95;7.07;;;35.40;54.40;;;;;;4999180;28;20125;-87
2023/06/23 06:48:14;;;;;;;11.43;6.80;;;35.70;54.90;;;;;;4998721;28;20446;-88
2023/06/23 06:50:40;;;;;;;9.25;6.45;;;35.90;54.00;;;;;;5000761;28;20116;-87
2023/06/23 06:53:08;;;;;;;17.83;7.20;;;36.00;54.40;;;;;;5021259;28;20519;-88
2023/06/23 06:55:34;;;;;;;18.42;7.63;;;36.10;53.80;;;;;;4999967;28;20060;-88
2023/06/23 06:58:01;;;;;;;12.43;6.68;;;36.00;52.70;;;;;;5017909;28;20546;-88
2023/06/23 07:00:27;;;;;;;15.27;7.20;;;35.70;53.40;;;;;;5015859;28;20033;-89
2023/06/23 07:02:54;;;;;;;10.93;6.57;;;35.70;53.40;;;;;;5016403;28;20390;-89
2023/06/23 07:05:20;;;;;;;15.30;7.93;;;36.10;53.10;;;;;;4999527;28;20033;-88
2023/06/23 07:07:46;;;;;;;11.80;7.32;;;36.10;52.60;;;;;;5016759;28;20025;-88
2023/06/23 07:10:12;;;;;;;11.73;8.20;;;36.00;52.50;;;;;;4999134;28;20536;-88
2023/06/23 07:12:38;;;;;;;10.35;7.20;;;36.30;51.40;;;;;;4998716;28;20036;-88
2023/06/23 07:15:04;;;;;;;12.57;7.38;;;36.10;50.80;;;;;;4999161;28;20132;-88
2023/06/23 07:17:30;;;;;;;13.15;9.30;;;36.10;51.30;;;;;;4999361;28;20064;-90
2023/06/23 07:19:55;;;;;;;12.02;6.22;;;36.10;52.40;;;;;;4997698;28;20054;-89
2023/06/23 07:22:21;;;;;;;13.32;7.20;;;36.40;51.70;;;;;;4998608;28;20026;-90
2023/06/23 07:24:47;;;;;;;8.38;6.28;;;36.40;52.20;;;;;;5016354;28;20072;-90
2023/06/23 07:27:14;;;;;;;12.02;6.60;;;36.60;51.30;;;;;;4999136;28;20029;-89
2023/06/23 07:29:40;;;;;;;13.65;7.03;;;36.70;52.80;;;;;;4999270;28;20029;-89
2023/06/23 07:32:07;;;;;;;16.30;6.55;;;36.80;50.80;;;;;;4999237;28;20030;-90
2023/06/23 07:34:34;;;;;;;13.35;6.65;;;37.00;50.40;;;;;;5028432;28;20041;-89
2023/06/23 07:37:00;;;;;;;11.57;7.70;;;36.70;50.50;;;;;;5020908;28;20053;-89
2023/06/23 07:39:25;;;;;;;12.43;7.43;;;36.50;51.20;;;;;;5033533;28;20021;-87
2023/06/23 07:41:51;;;;;;;11.82;8.20;;;36.70;49.30;;;;;;5019890;28;20030;-88
2023/06/23 07:44:17;;;;;;;16.20;7.70;;;36.30;50.70;;;;;;4997866;28;20121;-88
2023/06/23 07:46:43;;;;;;;13.43;7.32;;;36.30;50.60;;;;;;4999223;28;20117;-90
2023/06/23 07:49:09;;;;;;;11.65;6.03;;;36.30;51.30;;;;;;4997752;28;20025;-90
2023/06/23 07:51:34;;;;;;;10.70;6.28;;;36.70;50.70;;;;;;4997733;28;20517;-89
2023/06/23 07:54:00;;;;;;;12.30;6.63;;;36.60;50.00;;;;;;4997649;28;20453;-89
2023/06/23 07:56:26;;;;;;;12.90;6.60;;;36.30;50.80;;;;;;4998440;28;20037;-90
2023/06/23 07:58:51;;;;;;;9.77;6.65;;;36.20;52.00;;;;;;4997906;28;20030;-89
2023/06/23 08:01:17;;;;;;;12.05;6.72;;;36.20;52.10;;;;;;4996797;28;20037;-89
2023/06/23 08:03:47;;;;;;;13.38;6.90;;;36.40;51.70;;;;;;4997409;28;20026;-90
2023/06/23 08:06:13;;;;;;;14.13;7.38;;;36.60;52.50;;;;;;4997513;28;20026;-90
2023/06/23 08:08:40;;;;;;;13.00;6.80;;;36.90;50.90;;;;;;4998341;28;20041;-89
2023/06/23 08:11:06;;;;;;;14.00;7.72;;;36.90;51.20;;;;;;4997060;28;20054;-88
2023/06/23 08:13:32;;;;;;;15.65;7.22;;;36.90;51.00;;;;;;4996874;28;20029;-89
2023/06/23 08:15:57;;;;;;;21.95;7.10;;;37.30;50.90;;;;;;5015226;28;20042;-89
2023/06/23 08:18:23;;;;;;;10.73;6.93;;;37.20;51.90;;;;;;4997061;28;20022;-89
2023/06/23 08:20:49;;;;;;;17.90;6.97;;;37.00;50.80;;;;;;4996879;28;20073;-90
2023/06/23 08:23:15;;;;;;;19.25;8.18;;;36.40;52.10;;;;;;4997352;28;20049;-89
2023/06/23 08:25:42;;;;;;;8.48;6.97;;;36.10;53.30;;;;;;4997999;28;20053;-89
2023/06/23 08:28:08;;;;;;;9.77;7.68;;;35.90;53.20;;;;;;4998093;28;20018;-90
2023/06/23 08:30:33;;;;;;;12.30;7.40;;;35.80;54.40;;;;;;4997872;28;20057;-88
2023/06/23 08:32:59;;;;;;;17.75;7.45;;;35.50;54.60;;;;;;4997275;28;20022;-89
2023/06/23 08:35:25;;;;;;;9.65;7.65;;;34.80;55.70;;;;;;4997739;28;20034;-89
2023/06/23 08:37:51;;;;;;;20.90;7.57;;;34.60;56.70;;;;;;5015043;28;20025;-89
2023/06/23 08:40:17;;;;;;;16.52;7.88;;;34.30;57.50;;;;;;4997872;28;20112;-89
2023/06/23 08:42:43;;;;;;;18.45;7.90;;;33.90;58.70;;;;;;4997787;28;20038;-89
2023/06/23 08:45:12;;;;;;;11.88;7.88;;;33.60;59.50;;;;;;5005292;28;20037;-89
2023/06/23 08:47:46;;;;;;;14.68;7.35;;;33.50;60.80;;;;;;5015081;28;20022;-88
2023/06/23 08:50:13;;;;;;;12.32;7.82;;;33.40;62.10;;;;;;5015157;28;20022;-90
2023/06/23 08:52:39;;;;;;;12.40;7.70;;;33.40;61.00;;;;;;4996976;28;20041;-88
2023/06/23 08:55:05;;;;;;;21.90;8.00;;;33.30;61.90;;;;;;4997243;28;20046;-90
2023/06/23 08:57:31;;;;;;;12.18;8.05;;;33.20;62.30;;;;;;5013800;28;20022;-89
2023/06/23 08:59:58;;;;;;;18.90;8.35;;;33.10;61.90;;;;;;4995878;28;20116;-89
2023/06/23 09:02:24;;;;;;;12.65;8.70;;;33.20;63.00;;;;;;4996259;28;20029;-89
2023/06/23 09:04:49;;;;;;;11.82;7.70;;;33.00;62.60;;;;;;4996049;28;20037;-89
2023/06/23 09:07:15;;;;;;;18.50;9.02;;;32.70;63.20;;;;;;4997306;28;20120;-89
2023/06/23 09:09:45;;;;;;;14.35;9.38;;;33.10;62.90;;;;;;4996636;28;20036;-88
2023/06/23 09:12:12;;;;;;;28.40;9.02;;;33.40;62.80;;;;;;4996615;28;20614;-88
2023/06/23 09:14:39;;;;;;;16.80;8.80;;;33.50;63.20;;;;;;4996994;28;20053;-89
2023/06/23 09:17:05;;;;;;;22.60;9.38;;;33.20;63.40;;;;;;5013171;28;20861;-89
2023/06/23 09:19:33;;;;;;;10.82;8.35;;;32.80;63.90;;;;;;4995450;28;20026;-89
2023/06/23 09:21:59;;;;;;;19.10;9.43;;;32.60;65.70;;;;;;4995470;28;20054;-89
2023/06/23 09:24:42;;;;;;;14.25;8.68;;;32.30;66.00;;;;;;4996733;28;20026;-89
2023/06/23 09:27:08;;;;;;;15.23;8.98;;;32.30;66.00;;;;;;5014117;28;20116;-89
2023/06/23 09:29:35;;;;;;;21.83;8.88;;;32.60;67.20;;;;;;4996622;28;20466;-90
2023/06/23 09:32:03;;;;;;;23.23;9.23;;;33.00;66.40;;;;;;5014336;28;20084;-90
2023/06/23 09:34:31;;;;;;;17.25;8.82;;;33.70;65.50;;;;;;5013397;28;20089;-91
2023/06/23 09:37:14;;;;;;;16.02;9.13;;;34.10;63.60;;;;;;5013785;28;20030;-89
2023/06/23 09:39:43;;;;;;;17.15;9.10;;;34.60;62.40;;;;;;4996621;28;20033;-90
2023/06/23 09:42:13;;;;;;;17.50;8.45;;;35.10;61.20;;;;;;4996402;28;20025;-90
2023/06/23 09:44:40;;;;;;;13.65;7.82;;;35.20;59.90;;;;;;4996496;28;20025;-91
2023/06/23 09:47:06;;;;;;;19.88;8.07;;;35.30;61.50;;;;;;4996502;28;20040;-91
2023/06/23 09:49:51;;;;;;;13.75;7.60;;;35.50;60.20;;;;;;4996567;28;20072;-91
2023/06/23 09:52:27;;;;;;;12.52;7.75;;;35.30;59.90;;;;;;5015140;28;20022;-90
2023/06/23 09:54:55;;;;;;;18.85;7.72;;;35.70;59.60;;;;;;4997232;28;20045;-90
2023/06/23 09:57:22;;;;;;;19.75;8.55;;;35.70;59.40;;;;;;5000430;28;20026;-91
2023/06/23 09:59:53;;;;;;;14.35;8.13;;;35.60;59.60;;;;;;5014656;28;20022;-90
2023/06/23 10:02:24;;;;;;;10.15;7.80;;;35.60;60.30;;;;;;5016228;28;20026;-92
2023/06/23 10:04:50;;;;;;;16.95;8.57;;;35.50;59.80;;;;;;5014719;28;20033;-90
2023/06/23 10:07:21;;;;;;;24.23;9.10;;;35.30;59.70;;;;;;5016491;28;20041;-90
2023/06/23 10:09:51;;;;;;;16.13;8.18;;;34.80;60.10;;;;;;4995716;28;20036;-89
2023/06/23 10:12:22;;;;;;;14.00;6.82;;;34.50;61.10;;;;;;4996998;28;20026;-91
2023/06/23 10:14:49;;;;;;;15.68;8.07;;;34.20;63.90;;;;;;4997528;28;20073;-91
2023/06/23 10:17:16;;;;;;;13.93;8.48;;;34.10;63.00;;;;;;5004703;28;20038;-90
2023/06/23 10:19:44;;;;;;;11.13;8.13;;;34.40;65.10;;;;;;5000934;28;20021;-90
2023/06/23 10:22:12;;;;;;;9.20;7.38;;;34.60;63.80;;;;;;4998365;28;20037;-91
2023/06/23 10:24:38;;;;;;;17.52;7.65;;;34.60;63.10;;;;;;5000272;28;20225;-91
2023/06/23 10:27:05;;;;;;;18.45;8.65;;;34.50;62.70;;;;;;4998493;28;20591;-91
2023/06/23 10:29:34;;;;;;;20.67;8.10;;;34.30;63.00;;;;;;5017958;28;20036;-91
2023/06/23 10:32:00;;;;;;;14.07;8.30;;;34.20;63.70;;;;;;4998583;28;20025;-92
2023/06/23 10:34:28;;;;;;;13.05;8.52;;;34.00;61.70;;;;;;5001833;28;20506;-92
2023/06/23 10:36:56;;;;;;;13.38;7.90;;;33.80;63.20;;;;;;5001034;28;20048;-91
2023/06/23 10:39:26;;;;;;;17.40;8.38;;;33.70;64.60;;;;;;5003075;28;20566;-91
2023/06/23 10:41:53;;;;;;;16.90;9.18;;;33.70;65.40;;;;;;4997189;28;20025;-90
2023/06/23 10:44:19;;;;;;;15.07;8.52;;;33.70;66.50;;;;;;5001154;28;20025;-91
2023/06/23 10:46:46;;;;;;;11.68;8.40;;;33.80;64.50;;;;;;4997796;28;20034;-92
2023/06/23 10:49:13;;;;;;;22.60;9.35;;;33.60;61.90;;;;;;5001893;28;20117;-92
2023/06/23 10:51:40;;;;;;;15.35;8.80;;;33.60;64.40;;;;;;5000424;28;20037;-91
2023/06/23 10:54:07;;;;;;;9.82;7.82;;;33.40;63.20;;;;;;5001938;28;20029;-94
2023/06/23 10:56:42;;;;;;;19.42;8.65;;;33.30;65.30;;;;;;5000829;28;20056;-90
2023/06/23 10:59:21;;;;;;;14.23;7.68;;;33.50;65.90;;;;;;5000874;28;20372;-90
2023/06/23 11:02:08;;;;;;;13.13;9.23;;;33.40;63.50;;;;;;5002859;28;20093;-92
2023/06/23 11:04:38;;;;;;;18.05;9.40;;;33.50;66.20;;;;;;5003159;28;20030;-91
2023/06/23 11:07:14;;;;;;;12.75;7.80;;;33.50;66.60;;;;;;5017587;28;20022;-92
2023/06/23 11:10:02;;;;;;;12.98;8.60;;;33.60;66.10;;;;;;4999571;28;20426;-91
2023/06/23 11:12:44;;;;;;;18.95;8.43;;;33.70;64.40;;;;;;5018369;28;20054;-91
2023/06/23 11:15:15;;;;;;;12.35;8.57;;;33.80;62.70;;;;;;5018954;28;20049;-90
2023/06/23 11:17:49;;;;;;;15.80;8.70;;;33.70;63.70;;;;;;5010508;28;20062;-92
2023/06/23 11:20:20;;;;;;;16.52;8.90;;;33.90;64.30;;;;;;5020048;28;20052;-91
2023/06/23 11:22:58;;;;;;;16.13;8.07;;;33.70;63.40;;;;;;5018039;28;20022;-92
2023/06/23 11:25:32;;;;;;;23.05;9.02;;;33.50;64.80;;;;;;5000722;28;20084;-91
2023/06/23 11:28:24;;;;;;;14.38;8.73;;;33.40;65.40;;;;;;5020499;28;20506;-91
2023/06/23 11:31:13;;;;;;;16.20;9.45;;;33.30;64.80;;;;;;5000308;28;20034;-91
2023/06/23 11:33:40;;;;;;;15.57;8.77;;;33.30;66.00;;;;;;5006652;28;20022;-91
2023/06/23 11:36:19;;;;;;;18.45;9.43;;;33.50;66.50;;;;;;5000829;28;20061;-91
2023/06/23 11:38:45;;;;;;;16.35;8.00;;;33.60;65.70;;;;;;5018642;28;20462;-92
2023/06/23 11:41:15;;;;;;;13.25;8.52;;;33.60;66.20;;;;;;5000323;28;20033;-91
2023/06/23 11:43:42;;;;;;;13.60;8.70;;;33.70;65.60;;;;;;5001649;28;20045;-91
2023/06/23 11:46:13;;;;;;;14.45;7.82;;;33.70;64.20;;;;;;4999925;28;20453;-92
2023/06/23 11:48:40;;;;;;;13.00;9.15;;;33.80;63.90;;;;;;4999345;28;20041;-92
2023/06/23 11:51:08;;;;;;;18.63;8.63;;;34.00;64.60;;;;;;5001056;28;20026;-90
2023/06/23 11:53:35;;;;;;;14.77;8.73;;;34.10;63.90;;;;;;5001889;28;20034;-92
2023/06/23 11:56:02;;;;;;;16.77;9.43;;;34.30;63.20;;;;;;5000405;28;20034;-91
2023/06/23 11:58:32;;;;;;;24.55;9.02;;;34.10;62.20;;;;;;4998651;28;20018;-92
2023/06/23 12:00:58;;;;;;;13.95;8.57;;;33.90;62.60;;;;;;5001875;28;20065;-91
2023/06/23 12:03:25;;;;;;;19.92;9.18;;;33.80;62.70;;;;;;5021994;28;20037;-92
2023/06/23 12:05:51;;;;;;;14.95;8.50;;;33.60;63.10;;;;;;5000998;28;20030;-92
2023/06/23 12:08:18;;;;;;;23.88;8.68;;;33.70;64.70;;;;;;4999804;28;20025;-91
2023/06/23 12:10:46;;;;;;;20.13;8.98;;;33.80;65.00;;;;;;5000829;28;20061;-92
2023/06/23 12:13:13;;;;;;;17.50;8.48;;;33.70;62.20;;;;;;4999152;28;20018;-92
2023/06/23 12:15:40;;;;;;;13.43;8.60;;;33.70;62.00;;;;;;4999018;28;20510;-91
2023/06/23 12:18:06;;;;;;;26.52;11.18;;;33.60;62.50;;;;;;4999599;28;20026;-91
2023/06/23 12:20:40;;;;;;;13.95;8.45;;;33.70;63.50;;;;;;4998836;28;20049;-91
2023/06/23 12:23:10;;;;;;;21.15;8.55;;;33.70;66.20;;;;;;5003337;28;20022;-92
2023/06/23 12:25:41;;;;;;;16.65;8.32;;;34.00;64.10;;;;;;5002594;28;20034;-92
2023/06/23 12:28:12;;;;;;;13.77;8.73;;;34.20;62.90;;;;;;5001912;28;20029;-91
2023/06/23 12:30:43;;;;;;;17.85;9.98;;;34.40;60.90;;;;;;5004775;28;20041;-92
2023/06/23 12:33:16;;;;;;;13.73;8.70;;;34.60;60.70;;;;;;5004454;28;20021;-92
2023/06/23 12:36:03;;;;;;;20.00;9.32;;;34.70;60.10;;;;;;5016518;28;20524;-92
2023/06/23 12:38:32;;;;;;;16.05;9.02;;;34.80;60.40;;;;;;5004891;28;20040;-92
2023/06/23 12:41:17;;;;;;;18.35;11.35;;;34.90;59.30;;;;;;5006111;28;20113;-92
2023/06/23 12:43:43;;;;;;;16.73;9.70;;;34.90;57.60;;;;;;5000335;28;20029;-92
2023/06/23 12:46:13;;;;;;;16.05;9.40;;;34.80;58.20;;;;;;5021145;28;20029;-91
2023/06/23 12:48:39;;;;;;;15.70;8.80;;;34.70;58.40;;;;;;5020645;28;20026;-91